createdAt,value
2022-08-22T00:00:06.326Z,18.25
2022-08-22T00:01:06.336Z,18.21
2022-08-22T00:02:06.385Z,18.17
2022-08-22T00:02:46.389Z,21.52
2022-08-22T00:02:47.465Z,23.13
2022-08-22T00:02:54.938Z,19.76
2022-08-22T00:02:54.996Z,19.62
2022-08-22T00:02:55.136Z,19.76
2022-08-22T00:02:55.613Z,18.58
2022-08-22T00:02:57.677Z,18.94
2022-08-22T00:03:00.128Z,21.77
2022-08-22T00:03:01.452Z,21.44
2022-08-22T00:03:02.257Z,21.32
2022-08-22T00:03:04.340Z,22.45
2022-08-22T00:03:06.868Z,18.55
2022-08-22T00:03:09.241Z,19.59
2022-08-22T00:03:18.506Z,18.12
2022-08-22T00:04:07.296Z,18.07
2022-08-22T00:05:06.284Z,18.05
2022-08-22T00:06:06.265Z,17.99
2022-08-22T00:07:06.267Z,17.99
2022-08-22T00:08:06.278Z,17.95
2022-08-22T00:09:06.241Z,17.93
2022-08-22T00:10:06.237Z,17.92
2022-08-22T00:11:06.229Z,17.90
2022-08-22T00:12:06.190Z,17.89
2022-08-22T00:13:06.218Z,17.89
2022-08-22T00:14:06.184Z,17.87
2022-08-22T00:15:06.168Z,17.86
2022-08-22T00:16:06.159Z,17.86
2022-08-22T00:17:06.159Z,17.87
2022-08-22T00:18:06.139Z,17.84
2022-08-22T00:19:06.142Z,17.84
2022-08-22T00:20:06.109Z,17.81
2022-08-22T00:21:06.102Z,17.79
2022-08-22T00:22:06.089Z,17.78
2022-08-22T00:23:06.463Z,17.77
2022-08-22T00:24:06.062Z,17.74
2022-08-22T00:25:06.060Z,17.72
2022-08-22T00:26:06.052Z,17.72
2022-08-22T00:27:06.024Z,17.71
2022-08-22T00:28:06.076Z,17.71
2022-08-22T00:29:06.001Z,17.70
2022-08-22T00:30:06.001Z,17.70
2022-08-22T00:31:05.981Z,17.64
2022-08-22T00:32:05.983Z,17.63
2022-08-22T00:33:05.984Z,17.64
2022-08-22T00:34:05.950Z,17.64
2022-08-22T00:35:06.521Z,17.59
2022-08-22T00:36:05.924Z,17.56
2022-08-22T00:37:05.912Z,17.55
2022-08-22T00:38:05.924Z,17.54
2022-08-22T00:39:05.893Z,17.51
2022-08-22T00:40:05.899Z,17.51
2022-08-22T00:41:05.865Z,17.49
2022-08-22T00:42:05.864Z,17.48
2022-08-22T00:43:05.846Z,17.44
2022-08-22T00:44:05.842Z,17.41
2022-08-22T00:45:05.915Z,17.37
2022-08-22T00:46:05.800Z,17.36
2022-08-22T00:47:05.809Z,17.33
2022-08-22T00:48:05.805Z,17.34
2022-08-22T00:49:05.776Z,17.34
2022-08-22T00:50:05.770Z,17.33
2022-08-22T00:51:05.776Z,17.34
2022-08-22T00:52:05.735Z,17.33
2022-08-22T00:53:05.749Z,17.31
2022-08-22T00:54:06.710Z,17.31
2022-08-22T00:55:05.707Z,17.28
2022-08-22T00:56:05.698Z,17.26
2022-08-22T00:57:05.688Z,17.25
2022-08-22T00:58:05.685Z,17.25
2022-08-22T00:59:12.018Z,17.28
2022-08-22T01:00:06.649Z,17.25
2022-08-22T01:01:05.683Z,17.23
2022-08-22T01:02:06.039Z,17.23
2022-08-22T01:03:05.648Z,17.22
2022-08-22T01:04:05.600Z,17.22
2022-08-22T01:05:05.607Z,17.21
2022-08-22T01:06:05.579Z,17.18
2022-08-22T01:07:05.584Z,17.18
2022-08-22T01:08:05.565Z,17.16
2022-08-22T01:09:05.551Z,17.15
2022-08-22T01:10:05.542Z,17.14
2022-08-22T01:11:05.533Z,17.12
2022-08-22T01:12:05.510Z,17.12
2022-08-22T01:13:05.681Z,17.07
2022-08-22T01:14:05.480Z,17.06
2022-08-22T01:15:05.489Z,17.06
2022-08-22T01:16:05.471Z,17.06
2022-08-22T01:17:05.441Z,17.04
2022-08-22T01:18:05.464Z,16.98
2022-08-22T01:19:05.423Z,16.98
2022-08-22T01:20:05.422Z,16.97
2022-08-22T01:21:05.412Z,16.94
2022-08-22T01:22:05.403Z,16.91
2022-08-22T01:23:05.391Z,16.91
2022-08-22T01:24:05.384Z,16.89
2022-08-22T01:25:05.365Z,16.89
2022-08-22T01:26:05.343Z,16.89
2022-08-22T01:27:05.355Z,16.89
2022-08-22T01:28:05.354Z,16.86
2022-08-22T01:29:05.901Z,16.86
2022-08-22T01:30:06.305Z,16.89
2022-08-22T01:31:05.292Z,16.88
2022-08-22T01:32:05.289Z,16.86
2022-08-22T01:33:05.277Z,16.89
2022-08-22T01:34:05.273Z,16.89
2022-08-22T01:35:06.227Z,16.89
2022-08-22T01:36:05.253Z,16.88
2022-08-22T01:37:05.244Z,16.88
2022-08-22T01:38:05.215Z,16.86
2022-08-22T01:39:05.199Z,16.88
2022-08-22T01:40:05.234Z,16.88
2022-08-22T01:41:05.158Z,16.86
2022-08-22T01:42:05.158Z,16.86
2022-08-22T01:43:05.160Z,16.88
2022-08-22T01:44:05.127Z,16.86
2022-08-22T01:45:05.106Z,16.82
2022-08-22T01:46:05.098Z,16.81
2022-08-22T01:47:05.097Z,16.78
2022-08-22T01:48:05.087Z,16.76
2022-08-22T01:49:05.084Z,16.76
2022-08-22T01:50:05.050Z,16.76
2022-08-22T01:51:05.051Z,16.73
2022-08-22T01:52:05.035Z,16.73
2022-08-22T01:53:05.031Z,16.75
2022-08-22T01:54:04.998Z,16.75
2022-08-22T01:55:05.003Z,16.73
2022-08-22T01:56:04.977Z,16.73
2022-08-22T01:57:04.971Z,16.71
2022-08-22T01:58:04.980Z,16.70
2022-08-22T01:59:04.952Z,16.68
2022-08-22T02:00:05.921Z,16.68
2022-08-22T02:01:04.950Z,16.66
2022-08-22T02:02:04.912Z,16.66
2022-08-22T02:03:04.910Z,16.66
2022-08-22T02:04:04.891Z,16.63
2022-08-22T02:05:04.873Z,16.60
2022-08-22T02:06:04.855Z,16.60
2022-08-22T02:07:04.892Z,16.56
2022-08-22T02:08:04.866Z,16.56
2022-08-22T02:09:04.813Z,16.56
2022-08-22T02:10:04.812Z,16.56
2022-08-22T02:11:04.816Z,16.56
2022-08-22T02:12:04.773Z,16.53
2022-08-22T02:13:05.816Z,16.53
2022-08-22T02:14:04.764Z,16.53
2022-08-22T02:15:04.752Z,16.52
2022-08-22T02:16:04.735Z,16.56
2022-08-22T02:17:04.736Z,16.52
2022-08-22T02:18:04.735Z,16.50
2022-08-22T02:19:04.695Z,16.50
2022-08-22T02:20:04.703Z,16.50
2022-08-22T02:21:04.674Z,16.52
2022-08-22T02:22:04.669Z,16.52
2022-08-22T02:23:04.682Z,16.53
2022-08-22T02:24:04.645Z,16.56
2022-08-22T02:25:08.952Z,16.56
2022-08-22T02:26:04.658Z,16.53
2022-08-22T02:27:04.596Z,16.52
2022-08-22T02:28:04.604Z,16.50
2022-08-22T02:29:04.590Z,16.50
2022-08-22T02:30:04.575Z,16.46
2022-08-22T02:31:04.547Z,16.45
2022-08-22T02:32:04.569Z,16.42
2022-08-22T02:33:04.537Z,16.38
2022-08-22T02:34:04.521Z,16.34
2022-08-22T02:35:04.521Z,16.33
2022-08-22T02:36:04.489Z,16.30
2022-08-22T02:37:04.479Z,16.27
2022-08-22T02:38:04.502Z,16.24
2022-08-22T02:39:04.464Z,16.21
2022-08-22T02:40:04.537Z,16.17
2022-08-22T02:41:04.441Z,16.20
2022-08-22T02:42:04.429Z,16.11
2022-08-22T02:43:04.419Z,16.11
2022-08-22T02:44:04.435Z,16.07
2022-08-22T02:45:04.390Z,16.05
2022-08-22T02:46:04.390Z,16.04
2022-08-22T02:47:04.399Z,16.02
2022-08-22T02:48:04.370Z,16.02
2022-08-22T02:49:04.341Z,16.04
2022-08-22T02:50:04.557Z,16.05
2022-08-22T02:51:04.319Z,16.07
2022-08-22T02:52:04.302Z,16.07
2022-08-22T02:53:04.312Z,16.04
2022-08-22T02:54:04.284Z,16.04
2022-08-22T02:55:04.266Z,16.02
2022-08-22T02:56:04.252Z,16.01
2022-08-22T02:57:04.263Z,16.02
2022-08-22T02:58:04.243Z,15.97
2022-08-22T02:59:04.212Z,16.01
2022-08-22T03:00:04.213Z,16.00
2022-08-22T03:01:04.231Z,16.00
2022-08-22T03:02:04.211Z,16.00
2022-08-22T03:03:04.207Z,15.97
2022-08-22T03:04:04.154Z,15.97
2022-08-22T03:05:04.144Z,15.96
2022-08-22T03:06:04.143Z,15.94
2022-08-22T03:07:04.148Z,15.93
2022-08-22T03:08:04.124Z,15.90
2022-08-22T03:09:04.104Z,15.90
2022-08-22T03:10:04.102Z,15.89
2022-08-22T03:11:04.089Z,15.87
2022-08-22T03:12:04.075Z,15.84
2022-08-22T03:13:04.076Z,15.83
2022-08-22T03:14:04.050Z,15.84
2022-08-22T03:15:04.036Z,15.82
2022-08-22T03:16:04.029Z,15.76
2022-08-22T03:17:04.007Z,15.75
2022-08-22T03:18:04.043Z,15.71
2022-08-22T03:19:03.991Z,15.67
2022-08-22T03:20:03.987Z,15.67
2022-08-22T03:21:03.975Z,15.65
2022-08-22T03:22:03.960Z,15.67
2022-08-22T03:23:03.965Z,15.67
2022-08-22T03:24:03.940Z,15.67
2022-08-22T03:25:03.933Z,15.67
2022-08-22T03:26:07.396Z,15.67
2022-08-22T03:27:03.899Z,15.65
2022-08-22T03:28:03.928Z,15.64
2022-08-22T03:29:03.879Z,15.60
2022-08-22T03:30:03.869Z,15.57
2022-08-22T03:31:03.868Z,15.59
2022-08-22T03:32:03.851Z,15.54
2022-08-22T03:33:03.839Z,15.53
2022-08-22T03:34:03.832Z,15.50
2022-08-22T03:35:03.814Z,15.50
2022-08-22T03:36:03.812Z,15.49
2022-08-22T03:37:03.791Z,15.53
2022-08-22T03:38:03.804Z,15.53
2022-08-22T03:39:03.761Z,15.53
2022-08-22T03:40:04.875Z,15.49
2022-08-22T03:41:03.746Z,15.49
2022-08-22T03:42:03.732Z,15.47
2022-08-22T03:43:03.741Z,15.46
2022-08-22T03:44:03.713Z,15.44
2022-08-22T03:45:03.709Z,15.43
2022-08-22T03:46:03.692Z,15.46
2022-08-22T03:47:03.675Z,15.44
2022-08-22T03:48:03.682Z,15.43
2022-08-22T03:49:03.662Z,15.39
2022-08-22T03:50:03.642Z,15.39
2022-08-22T03:51:03.625Z,15.36
2022-08-22T03:52:03.623Z,15.32
2022-08-22T03:53:03.614Z,15.29
2022-08-22T03:54:03.593Z,15.27
2022-08-22T03:55:03.588Z,15.21
2022-08-22T03:56:03.575Z,15.20
2022-08-22T03:57:03.554Z,15.20
2022-08-22T03:58:03.586Z,15.17
2022-08-22T03:59:03.536Z,15.14
2022-08-22T04:00:04.527Z,15.14
2022-08-22T04:01:03.636Z,15.14
2022-08-22T04:02:03.507Z,15.16
2022-08-22T04:03:04.522Z,15.14
2022-08-22T04:04:03.487Z,15.14
2022-08-22T04:05:03.477Z,15.14
2022-08-22T04:06:03.465Z,15.16
2022-08-22T04:07:05.501Z,15.14
2022-08-22T04:08:04.457Z,15.16
2022-08-22T04:09:03.423Z,15.14
2022-08-22T04:10:03.430Z,15.11
2022-08-22T04:11:03.453Z,15.10
2022-08-22T04:12:03.397Z,15.09
2022-08-22T04:13:03.398Z,15.09
2022-08-22T04:14:03.378Z,15.03
2022-08-22T04:15:03.369Z,15.02
2022-08-22T04:16:03.352Z,14.99
2022-08-22T04:17:03.359Z,14.96
2022-08-22T04:18:03.351Z,14.96
2022-08-22T04:19:03.326Z,14.95
2022-08-22T04:20:03.312Z,14.96
2022-08-22T04:21:03.288Z,14.96
2022-08-22T04:22:03.284Z,14.98
2022-08-22T04:23:03.294Z,14.98
2022-08-22T04:24:03.262Z,15.01
2022-08-22T04:25:07.598Z,14.99
2022-08-22T04:26:12.019Z,14.98
2022-08-22T04:27:04.250Z,14.98
2022-08-22T04:28:03.211Z,14.98
2022-08-22T04:29:03.222Z,14.98
2022-08-22T04:30:03.202Z,14.98
2022-08-22T04:31:03.181Z,14.95
2022-08-22T04:32:03.194Z,14.96
2022-08-22T04:33:03.175Z,14.96
2022-08-22T04:34:03.169Z,14.96
2022-08-22T04:35:03.151Z,14.95
2022-08-22T04:36:03.136Z,14.96
2022-08-22T04:37:03.133Z,14.96
2022-08-22T04:38:03.127Z,14.98
2022-08-22T04:39:03.104Z,14.98
2022-08-22T04:40:03.142Z,14.99
2022-08-22T04:41:04.642Z,14.99
2022-08-22T04:42:28.776Z,14.98
2022-08-22T04:43:04.088Z,14.99
2022-08-22T04:44:03.046Z,14.98
2022-08-22T04:45:03.046Z,14.98
2022-08-22T04:46:03.046Z,14.96
2022-08-22T04:47:03.018Z,15.01
2022-08-22T04:48:03.037Z,14.99
2022-08-22T04:49:02.976Z,15.02
2022-08-22T04:50:02.975Z,15.03
2022-08-22T04:51:02.993Z,15.03
2022-08-22T04:52:02.963Z,15.02
2022-08-22T04:53:02.954Z,15.02
2022-08-22T04:54:02.953Z,15.02
2022-08-22T04:55:02.974Z,15.06
2022-08-22T04:56:07.110Z,15.06
2022-08-22T04:57:02.897Z,15.06
2022-08-22T04:58:02.900Z,15.07
2022-08-22T04:59:03.102Z,15.06
2022-08-22T05:00:02.887Z,15.02
2022-08-22T05:01:02.856Z,15.03
2022-08-22T05:02:02.889Z,15.03
2022-08-22T05:03:02.873Z,15.02
2022-08-22T05:04:02.826Z,15.01
2022-08-22T05:05:02.805Z,15.01
2022-08-22T05:06:02.808Z,15.01
2022-08-22T05:07:02.787Z,15.02
2022-08-22T05:08:02.815Z,15.01
2022-08-22T05:09:02.776Z,15.01
2022-08-22T05:10:09.271Z,15.03
2022-08-22T05:11:03.739Z,15.02
2022-08-22T05:12:02.742Z,15.03
2022-08-22T05:13:02.763Z,15.06
2022-08-22T05:14:02.709Z,15.07
2022-08-22T05:15:02.698Z,15.11
2022-08-22T05:16:02.680Z,15.10
2022-08-22T05:17:02.693Z,15.13
2022-08-22T05:18:02.660Z,15.13
2022-08-22T05:19:02.660Z,15.13
2022-08-22T05:20:02.642Z,15.16
2022-08-22T05:21:02.640Z,15.17
2022-08-22T05:22:02.657Z,15.19
2022-08-22T05:23:02.613Z,15.21
2022-08-22T05:24:02.621Z,15.25
2022-08-22T05:25:02.601Z,15.28
2022-08-22T05:26:02.575Z,15.31
2022-08-22T05:27:02.582Z,15.28
2022-08-22T05:28:02.582Z,15.34
2022-08-22T05:29:02.542Z,15.36
2022-08-22T05:30:02.543Z,15.39
2022-08-22T05:31:02.568Z,15.43
2022-08-22T05:32:02.520Z,15.47
2022-08-22T05:33:02.501Z,15.47
2022-08-22T05:34:02.493Z,15.49
2022-08-22T05:35:02.490Z,15.49
2022-08-22T05:36:02.462Z,15.50
2022-08-22T05:37:02.483Z,15.51
2022-08-22T05:38:02.433Z,15.53
2022-08-22T05:39:02.439Z,15.57
2022-08-22T05:40:02.453Z,15.60
2022-08-22T05:41:02.414Z,15.64
2022-08-22T05:42:02.414Z,15.67
2022-08-22T05:43:02.418Z,15.71
2022-08-22T05:44:02.375Z,15.74
2022-08-22T05:45:02.378Z,15.76
2022-08-22T05:46:02.368Z,15.80
2022-08-22T05:47:02.370Z,15.82
2022-08-22T05:48:02.409Z,15.84
2022-08-22T05:49:02.335Z,15.86
2022-08-22T05:50:02.306Z,15.92
2022-08-22T05:51:02.315Z,15.94
2022-08-22T05:52:02.307Z,15.97
2022-08-22T05:53:02.297Z,16.01
2022-08-22T05:54:02.266Z,16.04
2022-08-22T05:55:02.256Z,16.09
2022-08-22T05:56:02.256Z,16.09
2022-08-22T05:57:06.063Z,16.11
2022-08-22T05:58:03.227Z,16.15
2022-08-22T05:59:02.208Z,16.17
2022-08-22T06:00:02.202Z,16.20
2022-08-22T06:01:02.189Z,16.23
2022-08-22T06:02:02.288Z,16.27
2022-08-22T06:03:02.148Z,16.30
2022-08-22T06:04:02.162Z,16.33
2022-08-22T06:05:02.218Z,16.34
2022-08-22T06:06:02.119Z,16.38
2022-08-22T06:07:02.130Z,16.41
2022-08-22T06:08:02.117Z,16.43
2022-08-22T06:09:02.081Z,16.45
2022-08-22T06:10:02.088Z,16.48
2022-08-22T06:11:02.071Z,16.50
2022-08-22T06:12:02.052Z,16.57
2022-08-22T06:13:02.071Z,16.57
2022-08-22T06:14:02.041Z,16.60
2022-08-22T06:15:02.011Z,16.63
2022-08-22T06:16:02.037Z,16.66
2022-08-22T06:17:05.854Z,16.66
2022-08-22T06:18:01.996Z,16.67
2022-08-22T06:19:01.974Z,16.70
2022-08-22T06:20:01.963Z,16.71
2022-08-22T06:21:01.944Z,16.73
2022-08-22T06:22:01.980Z,16.76
2022-08-22T06:23:01.973Z,16.81
2022-08-22T06:24:01.902Z,16.83
2022-08-22T06:25:01.903Z,16.86
2022-08-22T06:26:01.885Z,16.89
2022-08-22T06:27:01.885Z,16.94
2022-08-22T06:28:01.898Z,16.96
2022-08-22T06:29:01.862Z,17.00
2022-08-22T06:30:02.656Z,17.03
2022-08-22T06:31:02.018Z,17.06
2022-08-22T06:32:02.417Z,17.11
2022-08-22T06:33:02.364Z,17.14
2022-08-22T06:34:02.160Z,17.15
2022-08-22T06:35:01.774Z,17.18
2022-08-22T06:36:01.759Z,17.21
2022-08-22T06:37:01.769Z,17.25
2022-08-22T06:38:01.747Z,17.28
2022-08-22T06:39:01.727Z,17.31
2022-08-22T06:40:02.692Z,17.37
2022-08-22T06:41:01.707Z,17.43
2022-08-22T06:42:01.816Z,17.46
2022-08-22T06:43:01.716Z,17.51
2022-08-22T06:44:01.666Z,17.52
2022-08-22T06:45:01.669Z,17.52
2022-08-22T06:46:01.676Z,17.55
2022-08-22T06:47:01.634Z,17.56
2022-08-22T06:48:01.716Z,17.59
2022-08-22T06:49:01.618Z,17.64
2022-08-22T06:50:01.598Z,17.68
2022-08-22T06:51:01.590Z,17.74
2022-08-22T06:52:01.600Z,17.78
2022-08-22T06:53:01.558Z,17.81
2022-08-22T06:54:01.550Z,17.86
2022-08-22T06:55:01.565Z,17.92
2022-08-22T06:56:02.604Z,17.95
2022-08-22T06:57:01.530Z,17.99
2022-08-22T06:58:01.532Z,18.00
2022-08-22T06:59:01.490Z,18.08
2022-08-22T07:00:01.487Z,18.11
2022-08-22T07:01:11.294Z,18.15
2022-08-22T07:02:02.501Z,18.21
2022-08-22T07:03:01.969Z,18.23
2022-08-22T07:04:01.453Z,18.27
2022-08-22T07:05:02.239Z,18.30
2022-08-22T07:06:01.455Z,18.35
2022-08-22T07:07:02.578Z,18.35
2022-08-22T07:08:01.404Z,18.37
2022-08-22T07:09:05.634Z,18.41
2022-08-22T07:10:02.372Z,18.44
2022-08-22T07:11:01.377Z,18.45
2022-08-22T07:12:01.361Z,18.50
2022-08-22T07:13:02.414Z,18.52
2022-08-22T07:14:01.323Z,18.60
2022-08-22T07:15:01.304Z,18.62
2022-08-22T07:16:01.306Z,18.65
2022-08-22T07:17:01.304Z,18.65
2022-08-22T07:18:01.277Z,18.65
2022-08-22T07:19:01.276Z,18.66
2022-08-22T07:20:01.256Z,18.65
2022-08-22T07:21:02.248Z,18.65
2022-08-22T07:22:02.155Z,18.65
2022-08-22T07:23:02.055Z,18.66
2022-08-22T07:24:01.207Z,18.65
2022-08-22T07:25:01.487Z,18.65
2022-08-22T07:26:01.645Z,18.65
2022-08-22T07:27:02.140Z,18.65
2022-08-22T07:28:03.875Z,18.67
2022-08-22T07:29:01.877Z,18.70
2022-08-22T07:30:01.450Z,18.72
2022-08-22T07:31:02.320Z,18.76
2022-08-22T07:32:01.118Z,18.81
2022-08-22T07:33:20.986Z,18.84
2022-08-22T07:34:02.089Z,18.87
2022-08-22T07:35:01.080Z,18.88
2022-08-22T07:36:01.058Z,18.91
2022-08-22T07:37:02.241Z,18.90
2022-08-22T07:38:01.338Z,18.91
2022-08-22T07:39:02.058Z,18.95
2022-08-22T07:40:01.045Z,18.95
2022-08-22T07:41:01.011Z,18.99
2022-08-22T07:42:00.991Z,19.04
2022-08-22T07:43:02.189Z,19.10
2022-08-22T07:44:02.089Z,19.19
2022-08-22T07:45:01.451Z,19.25
2022-08-22T07:46:00.986Z,19.32
2022-08-22T07:47:00.944Z,19.39
2022-08-22T07:48:01.154Z,19.44
2022-08-22T07:49:09.828Z,19.47
2022-08-22T07:50:01.924Z,19.51
2022-08-22T07:51:00.894Z,19.58
2022-08-22T07:52:00.915Z,19.63
2022-08-22T07:53:00.896Z,19.69
2022-08-22T07:54:01.116Z,19.77
2022-08-22T07:55:00.874Z,19.83
2022-08-22T07:56:01.876Z,19.86
2022-08-22T07:57:00.858Z,19.92
2022-08-22T07:58:01.773Z,19.98
2022-08-22T07:59:00.847Z,20.03
2022-08-22T08:00:00.805Z,20.06
2022-08-22T08:01:00.847Z,20.06
2022-08-22T08:02:00.794Z,20.10
2022-08-22T08:03:00.774Z,20.05
2022-08-22T08:04:00.775Z,20.06
2022-08-22T08:05:00.751Z,20.11
2022-08-22T08:06:01.008Z,20.16
2022-08-22T08:07:01.116Z,20.18
2022-08-22T08:08:01.836Z,20.24
2022-08-22T08:09:01.738Z,20.26
2022-08-22T08:10:01.646Z,20.31
2022-08-22T08:11:01.216Z,20.35
2022-08-22T08:12:00.659Z,20.35
2022-08-22T08:13:02.548Z,20.36
2022-08-22T08:14:00.649Z,20.41
2022-08-22T08:15:00.628Z,20.43
2022-08-22T08:16:00.635Z,20.50
2022-08-22T08:17:01.488Z,20.54
2022-08-22T08:18:01.442Z,20.58
2022-08-22T08:19:01.670Z,20.66
2022-08-22T08:20:04.541Z,20.70
2022-08-22T08:21:01.610Z,20.69
2022-08-22T08:22:01.513Z,20.73
2022-08-22T08:23:01.020Z,20.74
2022-08-22T08:24:00.521Z,20.77
2022-08-22T08:25:00.809Z,20.77
2022-08-22T08:26:01.644Z,20.74
2022-08-22T08:27:00.695Z,20.82
2022-08-22T08:28:01.588Z,20.88
2022-08-22T08:29:01.352Z,20.92
2022-08-22T08:30:01.262Z,20.99
2022-08-22T08:31:01.673Z,21.09
2022-08-22T08:32:01.582Z,21.16
2022-08-22T08:33:24.257Z,21.16
2022-08-22T08:34:02.413Z,21.24
2022-08-22T08:35:01.283Z,21.29
2022-08-22T08:36:03.014Z,21.38
2022-08-22T08:37:01.345Z,21.47
2022-08-22T08:38:00.680Z,21.53
2022-08-22T08:39:04.243Z,21.61
2022-08-22T08:40:00.501Z,21.62
2022-08-22T08:41:00.334Z,21.71
2022-08-22T08:42:00.339Z,21.83
2022-08-22T08:43:00.364Z,21.98
2022-08-22T08:44:00.358Z,22.07
2022-08-22T08:45:00.346Z,22.15
2022-08-22T08:46:00.350Z,22.25
2022-08-22T08:47:00.274Z,22.35
2022-08-22T08:48:00.603Z,22.39
2022-08-22T08:49:00.278Z,22.43
2022-08-22T08:50:00.553Z,22.46
2022-08-22T08:51:02.198Z,22.39
2022-08-22T08:52:00.347Z,22.33
2022-08-22T08:53:00.226Z,22.28
2022-08-22T08:54:00.318Z,22.35
2022-08-22T08:55:00.358Z,22.43
2022-08-22T08:56:00.530Z,22.51
2022-08-22T08:57:00.319Z,22.58
2022-08-22T08:58:05.141Z,22.67
2022-08-22T08:59:02.058Z,22.68
2022-08-22T09:00:00.328Z,22.75
2022-08-22T09:01:00.388Z,22.82
2022-08-22T09:02:00.096Z,22.88
2022-08-22T09:03:00.349Z,22.86
2022-08-22T09:04:02.090Z,22.83
2022-08-22T09:05:04.313Z,22.80
2022-08-22T09:06:04.220Z,22.82
2022-08-22T09:07:01.459Z,22.85
2022-08-22T09:08:04.284Z,22.88
2022-08-22T09:09:03.933Z,22.90
2022-08-22T09:10:04.089Z,22.91
2022-08-22T09:11:04.252Z,22.97
2022-08-22T09:12:01.803Z,23.04
2022-08-22T09:13:11.932Z,23.09
2022-08-22T09:14:02.162Z,23.16
2022-08-22T09:15:00.353Z,23.31
2022-08-22T09:16:04.814Z,23.43
2022-08-22T09:17:00.060Z,23.39
2022-08-22T09:19:11.267Z,23.43
2022-08-22T09:20:15.507Z,23.53
2022-08-22T09:21:16.171Z,23.57
2022-08-22T09:22:14.214Z,23.66
2022-08-22T09:23:12.240Z,23.69
2022-08-22T09:24:11.132Z,23.83
2022-08-22T09:25:11.200Z,24.00
2022-08-22T09:26:11.090Z,24.05
2022-08-22T09:27:11.129Z,24.12
2022-08-22T09:28:11.160Z,24.28
2022-08-22T09:29:11.090Z,24.39
2022-08-22T09:30:11.785Z,24.45
2022-08-22T09:31:21.817Z,24.60
2022-08-22T09:32:13.143Z,24.69
2022-08-22T09:33:10.994Z,24.78
2022-08-22T09:34:11.010Z,24.90
2022-08-22T09:35:10.984Z,24.85
2022-08-22T09:36:12.202Z,24.80
2022-08-22T09:37:14.195Z,24.76
2022-08-22T09:38:10.954Z,24.83
2022-08-22T09:39:10.992Z,24.84
2022-08-22T09:40:17.057Z,24.83
2022-08-22T09:41:11.933Z,24.90
2022-08-22T09:42:10.944Z,24.99
2022-08-22T09:43:11.166Z,25.06
2022-08-22T09:44:12.031Z,25.13
2022-08-22T09:45:10.875Z,25.15
2022-08-22T09:46:10.885Z,25.15
2022-08-22T09:47:10.904Z,25.06
2022-08-22T09:48:10.918Z,24.91
2022-08-22T09:49:11.983Z,24.90
2022-08-22T09:50:10.817Z,24.95
2022-08-22T09:51:31.340Z,25.03
2022-08-22T09:52:14.372Z,25.02
2022-08-22T09:53:10.810Z,24.98
2022-08-22T09:54:10.798Z,24.98
2022-08-22T09:55:11.782Z,25.05
2022-08-22T09:56:15.744Z,25.15
2022-08-22T09:57:10.786Z,25.23
2022-08-22T09:58:11.360Z,25.18
2022-08-22T09:59:10.838Z,25.18
2022-08-22T10:00:10.789Z,25.24
2022-08-22T10:01:10.886Z,25.32
2022-08-22T10:02:15.455Z,25.30
2022-08-22T10:03:11.679Z,25.39
2022-08-22T10:04:10.711Z,25.45
2022-08-22T10:05:10.676Z,25.60
2022-08-22T10:06:11.400Z,25.51
2022-08-22T10:07:12.214Z,25.52
2022-08-22T10:08:11.311Z,25.61
2022-08-22T10:09:14.941Z,25.70
2022-08-22T10:10:10.590Z,25.73
2022-08-22T10:11:10.582Z,25.77
2022-08-22T10:12:12.766Z,25.83
2022-08-22T10:13:10.784Z,25.82
2022-08-22T10:14:10.527Z,25.98
2022-08-22T10:15:10.544Z,26.15
2022-08-22T10:16:10.604Z,26.23
2022-08-22T10:17:10.633Z,26.18
2022-08-22T10:18:10.649Z,25.92
2022-08-22T10:19:10.576Z,25.50
2022-08-22T10:20:10.475Z,25.55
2022-08-22T10:21:10.473Z,25.61
2022-08-22T10:22:10.544Z,25.62
2022-08-22T10:23:10.440Z,25.77
2022-08-22T10:24:10.465Z,25.95
2022-08-22T10:25:10.461Z,26.15
2022-08-22T10:26:10.436Z,26.29
2022-08-22T10:27:11.462Z,26.28
2022-08-22T10:28:10.774Z,26.13
2022-08-22T10:29:10.359Z,26.12
2022-08-22T10:30:10.479Z,26.25
2022-08-22T10:31:11.143Z,26.20
2022-08-22T10:32:14.438Z,26.25
2022-08-22T10:33:12.073Z,26.30
2022-08-22T10:34:10.370Z,26.06
2022-08-22T10:35:10.313Z,26.10
2022-08-22T10:36:11.774Z,26.10
2022-08-22T10:37:10.654Z,26.02
2022-08-22T10:38:10.947Z,26.09
2022-08-22T10:39:11.866Z,26.07
2022-08-22T10:40:10.373Z,26.20
2022-08-22T10:41:10.234Z,26.32
2022-08-22T10:42:10.630Z,26.35
2022-08-22T10:43:10.285Z,26.30
2022-08-22T10:44:10.869Z,25.98
2022-08-22T10:45:10.187Z,26.01
2022-08-22T10:46:12.607Z,26.20
2022-08-22T10:47:10.204Z,26.32
2022-08-22T10:48:10.572Z,26.44
2022-08-22T10:49:10.300Z,26.57
2022-08-22T10:50:11.553Z,26.65
2022-08-22T10:51:10.174Z,26.81
2022-08-22T10:52:32.018Z,26.97
2022-08-22T10:53:10.218Z,27.04
2022-08-22T10:54:31.090Z,27.18
2022-08-22T10:55:10.214Z,27.13
2022-08-22T10:56:10.137Z,27.04
2022-08-22T10:57:10.200Z,26.37
2022-08-22T10:58:12.857Z,26.52
2022-08-22T10:59:10.047Z,26.65
2022-08-22T11:00:10.056Z,26.70
2022-08-22T11:01:37.998Z,26.85
2022-08-22T11:02:11.018Z,26.94
2022-08-22T11:03:10.589Z,26.85
2022-08-22T11:04:12.264Z,26.70
2022-08-22T11:05:11.198Z,26.76
2022-08-22T11:06:12.805Z,26.88
2022-08-22T11:07:09.944Z,27.00
2022-08-22T11:08:10.038Z,27.18
2022-08-22T11:09:11.117Z,27.36
2022-08-22T11:10:09.931Z,27.50
2022-08-22T11:11:09.929Z,27.57
2022-08-22T11:12:09.933Z,27.59
2022-08-22T11:13:09.873Z,27.60
2022-08-22T11:14:09.890Z,27.57
2022-08-22T11:15:09.878Z,27.69
2022-08-22T11:16:09.854Z,27.36
2022-08-22T11:17:27.951Z,27.28
2022-08-22T11:18:12.860Z,27.44
2022-08-22T11:19:15.335Z,27.46
2022-08-22T11:20:10.810Z,27.43
2022-08-22T11:21:09.790Z,27.39
2022-08-22T11:22:10.045Z,27.46
2022-08-22T11:23:12.396Z,27.54
2022-08-22T11:24:17.184Z,27.62
2022-08-22T11:25:12.526Z,27.67
2022-08-22T11:26:10.122Z,27.78
2022-08-22T11:27:12.973Z,27.72
2022-08-22T11:28:09.707Z,27.78
2022-08-22T11:29:13.761Z,27.87
2022-08-22T11:30:09.716Z,27.84
2022-08-22T11:31:09.702Z,27.79
2022-08-22T11:32:09.768Z,27.84
2022-08-22T11:33:09.746Z,27.66
2022-08-22T11:34:09.675Z,27.85
2022-08-22T11:35:09.652Z,28.09
2022-08-22T11:36:09.628Z,28.15
2022-08-22T11:37:11.532Z,27.72
2022-08-22T11:38:11.093Z,27.47
2022-08-22T11:39:09.954Z,27.57
2022-08-22T11:40:11.815Z,27.77
2022-08-22T11:41:09.553Z,27.92
2022-08-22T11:42:21.841Z,27.92
2022-08-22T11:43:21.175Z,27.94
2022-08-22T11:44:10.301Z,28.11
2022-08-22T11:45:09.554Z,28.22
2022-08-22T11:46:09.546Z,28.12
2022-08-22T11:47:09.589Z,28.09
2022-08-22T11:48:21.949Z,27.93
2022-08-22T11:49:09.500Z,27.88
2022-08-22T11:50:13.323Z,27.77
2022-08-22T11:51:13.180Z,27.60
2022-08-22T11:52:09.450Z,27.57
2022-08-22T11:53:09.455Z,27.54
2022-08-22T11:54:09.513Z,27.40
2022-08-22T11:55:09.560Z,27.25
2022-08-22T11:56:10.441Z,27.17
2022-08-22T11:57:09.567Z,27.14
2022-08-22T11:58:09.448Z,27.17
2022-08-22T11:59:09.371Z,27.24
2022-08-22T12:00:09.417Z,27.27
2022-08-22T12:01:13.081Z,27.17
2022-08-22T12:02:12.193Z,27.19
2022-08-22T12:03:09.368Z,27.36
2022-08-22T12:04:09.859Z,27.49
2022-08-22T12:05:09.311Z,27.60
2022-08-22T12:06:09.318Z,27.66
2022-08-22T12:07:09.317Z,27.70
2022-08-22T12:08:11.329Z,27.87
2022-08-22T12:09:09.222Z,27.97
2022-08-22T12:10:13.438Z,27.97
2022-08-22T12:11:09.353Z,27.96
2022-08-22T12:12:09.322Z,27.96
2022-08-22T12:13:09.299Z,27.94
2022-08-22T12:14:09.245Z,27.85
2022-08-22T12:15:09.325Z,27.81
2022-08-22T12:16:09.176Z,27.72
2022-08-22T12:17:09.173Z,27.70
2022-08-22T12:18:09.197Z,27.82
2022-08-22T12:19:09.144Z,27.97
2022-08-22T12:20:17.353Z,27.77
2022-08-22T12:21:10.177Z,27.55
2022-08-22T12:22:09.113Z,27.49
2022-08-22T12:23:09.105Z,27.63
2022-08-22T12:24:11.296Z,27.87
2022-08-22T12:25:10.062Z,28.17
2022-08-22T12:26:10.795Z,28.36
2022-08-22T12:27:09.051Z,28.58
2022-08-22T12:28:09.900Z,28.64
2022-08-22T12:29:15.689Z,28.62
2022-08-22T12:30:13.687Z,28.55
2022-08-22T12:31:09.066Z,28.64
2022-08-22T12:32:10.128Z,28.73
2022-08-22T12:33:09.010Z,28.80
2022-08-22T12:34:08.989Z,28.92
2022-08-22T12:35:13.967Z,28.78
2022-08-22T12:36:12.636Z,28.70
2022-08-22T12:37:10.069Z,28.67
2022-08-22T12:38:26.443Z,28.66
2022-08-22T12:39:09.960Z,28.64
2022-08-22T12:40:09.032Z,28.67